sensor_id;sensor_type;location;lat;lon;timestamp;pressure;altitude;pressure_sealevel;temperature;humidity
70009;BME280;59542;37.950;-122.338;2023-05-08T00:00:42;101728.09;;;20.94;37.72
70009;BME280;59542;37.950;-122.338;2023-05-08T00:03:08;101715.31;;;20.94;38.20
70009;BME280;59542;37.950;-122.338;2023-05-08T00:05:34;101713.03;;;20.86;36.41
70009;BME280;59542;37.950;-122.338;2023-05-08T00:08:00;101709.81;;;20.67;38.05
70009;BME280;59542;37.950;-122.338;2023-05-08T00:10:28;101709.13;;;20.77;36.69
70009;BME280;59542;37.950;-122.338;2023-05-08T00:12:54;101709.41;;;20.59;37.35
70009;BME280;59542;37.950;-122.338;2023-05-08T00:15:21;101707.97;;;20.51;38.71
70009;BME280;59542;37.950;-122.338;2023-05-08T00:17:47;101708.84;;;20.40;37.80
70009;BME280;59542;37.950;-122.338;2023-05-08T00:20:14;101702.53;;;20.34;39.05
70009;BME280;59542;37.950;-122.338;2023-05-08T00:22:40;101698.53;;;20.03;38.59
70009;BME280;59542;37.950;-122.338;2023-05-08T00:25:06;101707.00;;;20.07;38.87
70009;BME280;59542;37.950;-122.338;2023-05-08T00:27:33;101697.13;;;20.00;38.75
70009;BME280;59542;37.950;-122.338;2023-05-08T00:29:59;101698.59;;;20.08;39.28
70009;BME280;59542;37.950;-122.338;2023-05-08T00:32:26;101703.72;;;20.04;39.37
70009;BME280;59542;37.950;-122.338;2023-05-08T00:34:52;101708.91;;;20.06;39.10
70009;BME280;59542;37.950;-122.338;2023-05-08T00:37:18;101707.66;;;19.80;38.87
70009;BME280;59542;37.950;-122.338;2023-05-08T00:39:44;101703.44;;;19.56;38.35
70009;BME280;59542;37.950;-122.338;2023-05-08T00:42:11;101701.88;;;19.76;38.87
70009;BME280;59542;37.950;-122.338;2023-05-08T00:44:37;101712.66;;;19.55;38.98
70009;BME280;59542;37.950;-122.338;2023-05-08T00:47:06;101707.66;;;19.06;39.92
70009;BME280;59542;37.950;-122.338;2023-05-08T00:49:32;101714.19;;;18.93;40.83
70009;BME280;59542;37.950;-122.338;2023-05-08T00:52:01;101718.69;;;18.88;40.73
70009;BME280;59542;37.950;-122.338;2023-05-08T00:54:29;101712.31;;;18.94;41.28
70009;BME280;59542;37.950;-122.338;2023-05-08T00:56:56;101714.31;;;18.87;41.66
70009;BME280;59542;37.950;-122.338;2023-05-08T00:59:23;101711.47;;;18.93;41.87
70009;BME280;59542;37.950;-122.338;2023-05-08T01:01:51;101702.75;;;18.91;41.86
70009;BME280;59542;37.950;-122.338;2023-05-08T01:04:23;101717.19;;;18.68;42.45
70009;BME280;59542;37.950;-122.338;2023-05-08T01:06:50;101705.50;;;18.56;42.17
70009;BME280;59542;37.950;-122.338;2023-05-08T01:09:17;101705.63;;;18.50;41.11
70009;BME280;59542;37.950;-122.338;2023-05-08T01:12:00;101702.44;;;18.53;41.15
70009;BME280;59542;37.950;-122.338;2023-05-08T01:14:53;101710.47;;;18.36;41.66
70009;BME280;59542;37.950;-122.338;2023-05-08T01:17:31;101698.22;;;18.45;42.87
70009;BME280;59542;37.950;-122.338;2023-05-08T01:23:00;101704.72;;;18.32;43.01
70009;BME280;59542;37.950;-122.338;2023-05-08T01:25:48;101701.28;;;18.13;41.13
70009;BME280;59542;37.950;-122.338;2023-05-08T01:31:42;101696.44;;;17.92;41.43
70009;BME280;59542;37.950;-122.338;2023-05-08T01:34:20;101697.38;;;17.86;43.48
70009;BME280;59542;37.950;-122.338;2023-05-08T01:36:59;101698.81;;;18.00;42.98
70009;BME280;59542;37.950;-122.338;2023-05-08T01:39:43;101687.72;;;17.90;44.34
70009;BME280;59542;37.950;-122.338;2023-05-08T01:45:08;101686.91;;;17.89;43.25
70009;BME280;59542;37.950;-122.338;2023-05-08T01:47:36;101686.78;;;17.73;43.87
70009;BME280;59542;37.950;-122.338;2023-05-08T01:50:17;101687.84;;;17.83;43.39
70009;BME280;59542;37.950;-122.338;2023-05-08T01:52:48;101691.72;;;17.87;42.19
70009;BME280;59542;37.950;-122.338;2023-05-08T01:55:36;101686.78;;;17.96;42.62
70009;BME280;59542;37.950;-122.338;2023-05-08T01:58:08;101692.22;;;17.96;42.40
70009;BME280;59542;37.950;-122.338;2023-05-08T02:00:38;101697.84;;;17.83;43.19
70009;BME280;59542;37.950;-122.338;2023-05-08T02:03:07;101690.06;;;17.86;42.83
70009;BME280;59542;37.950;-122.338;2023-05-08T02:05:36;101690.31;;;17.85;42.67
70009;BME280;59542;37.950;-122.338;2023-05-08T02:08:04;101699.63;;;17.89;42.93
70009;BME280;59542;37.950;-122.338;2023-05-08T02:10:32;101699.09;;;17.68;43.46
70009;BME280;59542;37.950;-122.338;2023-05-08T02:13:00;101694.19;;;17.77;42.66
70009;BME280;59542;37.950;-122.338;2023-05-08T02:15:28;101691.78;;;17.69;42.63
70009;BME280;59542;37.950;-122.338;2023-05-08T02:17:57;101681.94;;;17.75;43.01
70009;BME280;59542;37.950;-122.338;2023-05-08T02:20:26;101685.38;;;17.52;43.88
70009;BME280;59542;37.950;-122.338;2023-05-08T02:22:55;101685.16;;;17.65;42.39
70009;BME280;59542;37.950;-122.338;2023-05-08T02:25:22;101691.06;;;17.32;42.48
70009;BME280;59542;37.950;-122.338;2023-05-08T02:27:49;101684.16;;;17.36;43.15
70009;BME280;59542;37.950;-122.338;2023-05-08T02:30:19;101688.78;;;17.47;43.39
70009;BME280;59542;37.950;-122.338;2023-05-08T02:32:47;101690.53;;;17.41;42.77
70009;BME280;59542;37.950;-122.338;2023-05-08T02:35:17;101689.78;;;17.23;43.24
70009;BME280;59542;37.950;-122.338;2023-05-08T02:37:47;101688.28;;;17.08;43.62
70009;BME280;59542;37.950;-122.338;2023-05-08T02:40:16;101686.50;;;17.02;44.32
70009;BME280;59542;37.950;-122.338;2023-05-08T02:42:43;101684.34;;;16.93;44.62
70009;BME280;59542;37.950;-122.338;2023-05-08T02:45:12;101680.66;;;16.69;44.87
70009;BME280;59542;37.950;-122.338;2023-05-08T02:52:52;101669.97;;;16.19;47.09
70009;BME280;59542;37.950;-122.338;2023-05-08T02:55:39;101667.31;;;15.94;46.87
70009;BME280;59542;37.950;-122.338;2023-05-08T02:58:33;101673.16;;;15.66;46.96
70009;BME280;59542;37.950;-122.338;2023-05-08T03:01:06;101672.66;;;15.44;48.18
70009;BME280;59542;37.950;-122.338;2023-05-08T03:03:43;101678.88;;;15.38;48.21
70009;BME280;59542;37.950;-122.338;2023-05-08T03:06:17;101674.31;;;15.07;49.80
70009;BME280;59542;37.950;-122.338;2023-05-08T03:08:44;101671.16;;;15.10;50.63
70009;BME280;59542;37.950;-122.338;2023-05-08T03:11:14;101673.41;;;15.19;50.45
70009;BME280;59542;37.950;-122.338;2023-05-08T03:13:45;101672.53;;;14.87;50.89
70009;BME280;59542;37.950;-122.338;2023-05-08T03:16:17;101678.38;;;14.71;51.77
70009;BME280;59542;37.950;-122.338;2023-05-08T03:18:58;101690.84;;;14.65;51.95
70009;BME280;59542;37.950;-122.338;2023-05-08T03:21:28;101690.03;;;14.58;52.50
70009;BME280;59542;37.950;-122.338;2023-05-08T03:23:59;101699.16;;;14.64;51.66
70009;BME280;59542;37.950;-122.338;2023-05-08T03:26:25;101702.09;;;14.56;52.08
70009;BME280;59542;37.950;-122.338;2023-05-08T03:28:53;101696.66;;;14.62;51.00
70009;BME280;59542;37.950;-122.338;2023-05-08T03:31:21;101704.13;;;14.60;52.04
70009;BME280;59542;37.950;-122.338;2023-05-08T03:33:51;101704.78;;;14.56;52.14
70009;BME280;59542;37.950;-122.338;2023-05-08T03:36:18;101694.63;;;14.44;51.78
70009;BME280;59542;37.950;-122.338;2023-05-08T03:38:46;101701.25;;;14.35;52.76
70009;BME280;59542;37.950;-122.338;2023-05-08T03:41:12;101703.72;;;14.43;51.48
70009;BME280;59542;37.950;-122.338;2023-05-08T03:43:40;101707.06;;;14.25;52.81
70009;BME280;59542;37.950;-122.338;2023-05-08T03:46:07;101711.84;;;14.17;52.50
70009;BME280;59542;37.950;-122.338;2023-05-08T03:48:34;101697.53;;;14.10;52.65
70009;BME280;59542;37.950;-122.338;2023-05-08T03:51:01;101706.66;;;14.02;52.64
70009;BME280;59542;37.950;-122.338;2023-05-08T03:53:29;101705.84;;;14.02;53.04
70009;BME280;59542;37.950;-122.338;2023-05-08T03:55:58;101698.19;;;14.05;53.09
70009;BME280;59542;37.950;-122.338;2023-05-08T04:04:15;101704.22;;;13.94;53.71
70009;BME280;59542;37.950;-122.338;2023-05-08T04:10:10;101703.75;;;13.70;55.00
70009;BME280;59542;37.950;-122.338;2023-05-08T04:12:21;101705.84;;;13.68;55.03
70009;BME280;59542;37.950;-122.338;2023-05-08T04:14:55;101715.75;;;13.61;55.45
70009;BME280;59542;37.950;-122.338;2023-05-08T04:17:42;101718.84;;;13.65;55.67
70009;BME280;59542;37.950;-122.338;2023-05-08T04:20:19;101719.88;;;13.51;56.67
70009;BME280;59542;37.950;-122.338;2023-05-08T04:22:49;101725.22;;;13.37;57.69
70009;BME280;59542;37.950;-122.338;2023-05-08T04:25:17;101724.59;;;13.35;58.35
70009;BME280;59542;37.950;-122.338;2023-05-08T04:27:44;101727.28;;;13.35;58.35
70009;BME280;59542;37.950;-122.338;2023-05-08T04:30:11;101726.91;;;13.38;58.65
70009;BME280;59542;37.950;-122.338;2023-05-08T04:32:38;101722.28;;;13.32;59.70
70009;BME280;59542;37.950;-122.338;2023-05-08T04:35:05;101727.28;;;13.35;60.42
70009;BME280;59542;37.950;-122.338;2023-05-08T04:37:31;101723.94;;;13.27;61.32
70009;BME280;59542;37.950;-122.338;2023-05-08T04:39:59;101721.09;;;13.35;61.35
70009;BME280;59542;37.950;-122.338;2023-05-08T04:42:25;101727.66;;;13.26;62.02
70009;BME280;59542;37.950;-122.338;2023-05-08T04:44:52;101728.66;;;13.18;62.20
70009;BME280;59542;37.950;-122.338;2023-05-08T04:47:19;101718.28;;;13.08;63.34
70009;BME280;59542;37.950;-122.338;2023-05-08T04:49:46;101723.03;;;13.13;63.43
70009;BME280;59542;37.950;-122.338;2023-05-08T04:52:12;101721.47;;;13.25;62.75
70009;BME280;59542;37.950;-122.338;2023-05-08T04:54:38;101728.41;;;13.13;63.25
70009;BME280;59542;37.950;-122.338;2023-05-08T04:57:05;101729.00;;;13.02;63.85
70009;BME280;59542;37.950;-122.338;2023-05-08T04:59:32;101725.03;;;12.98;64.62
70009;BME280;59542;37.950;-122.338;2023-05-08T05:01:58;101722.13;;;12.92;64.50
70009;BME280;59542;37.950;-122.338;2023-05-08T05:04:27;101718.47;;;13.00;64.32
70009;BME280;59542;37.950;-122.338;2023-05-08T05:06:54;101722.09;;;12.86;64.98
70009;BME280;59542;37.950;-122.338;2023-05-08T05:09:20;101725.84;;;12.91;64.69
70009;BME280;59542;37.950;-122.338;2023-05-08T05:11:46;101725.38;;;12.81;65.07
70009;BME280;59542;37.950;-122.338;2023-05-08T05:14:12;101723.56;;;12.88;64.49
70009;BME280;59542;37.950;-122.338;2023-05-08T05:16:39;101718.34;;;12.80;65.07
70009;BME280;59542;37.950;-122.338;2023-05-08T05:19:05;101712.19;;;12.86;64.79
70009;BME280;59542;37.950;-122.338;2023-05-08T05:21:31;101717.97;;;12.83;64.98
70009;BME280;59542;37.950;-122.338;2023-05-08T05:23:58;101716.22;;;12.69;65.41
70009;BME280;59542;37.950;-122.338;2023-05-08T05:26:24;101723.13;;;12.85;64.92
70009;BME280;59542;37.950;-122.338;2023-05-08T05:28:50;101714.63;;;12.81;65.18
70009;BME280;59542;37.950;-122.338;2023-05-08T05:31:16;101716.94;;;12.84;64.97
70009;BME280;59542;37.950;-122.338;2023-05-08T05:33:43;101717.72;;;12.78;65.48
70009;BME280;59542;37.950;-122.338;2023-05-08T05:36:09;101717.09;;;12.76;65.42
70009;BME280;59542;37.950;-122.338;2023-05-08T05:38:35;101717.09;;;12.76;65.07
70009;BME280;59542;37.950;-122.338;2023-05-08T05:41:01;101719.19;;;12.87;64.73
70009;BME280;59542;37.950;-122.338;2023-05-08T05:43:28;101719.19;;;12.81;64.85
70009;BME280;59542;37.950;-122.338;2023-05-08T05:45:54;101718.34;;;12.80;65.40
70009;BME280;59542;37.950;-122.338;2023-05-08T05:48:23;101715.28;;;12.83;64.90
70009;BME280;59542;37.950;-122.338;2023-05-08T05:50:49;101717.97;;;12.83;64.90
70009;BME280;59542;37.950;-122.338;2023-05-08T05:53:15;101715.03;;;12.78;65.04
70009;BME280;59542;37.950;-122.338;2023-05-08T05:55:42;101713.75;;;12.67;65.52
70009;BME280;59542;37.950;-122.338;2023-05-08T05:58:08;101707.88;;;12.92;64.12
70009;BME280;59542;37.950;-122.338;2023-05-08T06:00:34;101709.50;;;12.86;64.48
70009;BME280;59542;37.950;-122.338;2023-05-08T06:03:00;101709.22;;;12.75;65.23
70009;BME280;59542;37.950;-122.338;2023-05-08T06:05:27;101710.47;;;12.72;65.54
70009;BME280;59542;37.950;-122.338;2023-05-08T06:07:53;101707.22;;;12.83;64.95
70009;BME280;59542;37.950;-122.338;2023-05-08T06:10:19;101712.91;;;12.67;65.62
70009;BME280;59542;37.950;-122.338;2023-05-08T06:12:46;101709.56;;;12.58;65.87
70009;BME280;59542;37.950;-122.338;2023-05-08T06:15:12;101706.53;;;12.68;65.67
70009;BME280;59542;37.950;-122.338;2023-05-08T06:17:40;101699.25;;;12.62;65.66
70009;BME280;59542;37.950;-122.338;2023-05-08T06:20:07;101702.81;;;12.69;65.23
70009;BME280;59542;37.950;-122.338;2023-05-08T06:22:33;101695.75;;;12.61;65.08
70009;BME280;59542;37.950;-122.338;2023-05-08T06:25:01;101697.97;;;12.51;65.98
70009;BME280;59542;37.950;-122.338;2023-05-08T06:27:28;101700.59;;;12.79;64.72
70009;BME280;59542;37.950;-122.338;2023-05-08T06:29:54;101691.00;;;12.63;65.38
70009;BME280;59542;37.950;-122.338;2023-05-08T06:32:21;101691.94;;;12.49;65.88
70009;BME280;59542;37.950;-122.338;2023-05-08T06:34:47;101695.72;;;12.55;64.91
70009;BME280;59542;37.950;-122.338;2023-05-08T06:37:13;101690.78;;;12.65;65.35
70009;BME280;59542;37.950;-122.338;2023-05-08T06:39:40;101697.53;;;12.54;65.69
70009;BME280;59542;37.950;-122.338;2023-05-08T06:42:06;101685.94;;;12.47;65.96
70009;BME280;59542;37.950;-122.338;2023-05-08T06:44:33;101695.66;;;12.48;65.83
70009;BME280;59542;37.950;-122.338;2023-05-08T06:46:59;101695.22;;;12.45;65.97
70009;BME280;59542;37.950;-122.338;2023-05-08T06:49:25;101701.97;;;12.34;66.62
70009;BME280;59542;37.950;-122.338;2023-05-08T06:51:51;101705.25;;;12.29;66.96
70009;BME280;59542;37.950;-122.338;2023-05-08T06:54:17;101713.94;;;12.31;66.54
70009;BME280;59542;37.950;-122.338;2023-05-08T06:56:44;101704.84;;;12.32;66.29
70009;BME280;59542;37.950;-122.338;2023-05-08T06:59:11;101701.41;;;12.38;66.36
70009;BME280;59542;37.950;-122.338;2023-05-08T07:01:37;101705.75;;;12.39;66.58
70009;BME280;59542;37.950;-122.338;2023-05-08T07:04:04;101699.53;;;12.39;66.89
70009;BME280;59542;37.950;-122.338;2023-05-08T07:06:30;101705.69;;;12.33;66.92
70009;BME280;59542;37.950;-122.338;2023-05-08T07:08:56;101700.66;;;12.23;67.24
70009;BME280;59542;37.950;-122.338;2023-05-08T07:11:23;101702.31;;;12.24;67.46
70009;BME280;59542;37.950;-122.338;2023-05-08T07:13:49;101704.72;;;12.40;66.88
70009;BME280;59542;37.950;-122.338;2023-05-08T07:16:16;101711.47;;;12.36;66.93
70009;BME280;59542;37.950;-122.338;2023-05-08T07:18:42;101706.78;;;12.38;67.53
70009;BME280;59542;37.950;-122.338;2023-05-08T07:21:09;101704.84;;;12.32;68.08
70009;BME280;59542;37.950;-122.338;2023-05-08T07:23:36;101706.47;;;12.27;67.98
70009;BME280;59542;37.950;-122.338;2023-05-08T07:26:02;101706.13;;;12.36;67.51
70009;BME280;59542;37.950;-122.338;2023-05-08T07:28:28;101703.16;;;12.25;68.25
70009;BME280;59542;37.950;-122.338;2023-05-08T07:30:54;101709.59;;;12.30;67.81
70009;BME280;59542;37.950;-122.338;2023-05-08T07:33:21;101711.66;;;12.28;67.87
70009;BME280;59542;37.950;-122.338;2023-05-08T07:35:48;101717.94;;;12.14;68.54
70009;BME280;59542;37.950;-122.338;2023-05-08T07:38:14;101713.34;;;12.08;69.04
70009;BME280;59542;37.950;-122.338;2023-05-08T07:40:40;101712.59;;;12.21;68.29
70009;BME280;59542;37.950;-122.338;2023-05-08T07:43:06;101704.13;;;12.17;68.91
70009;BME280;59542;37.950;-122.338;2023-05-08T07:45:34;101704.91;;;12.11;69.37
70009;BME280;59542;37.950;-122.338;2023-05-08T07:48:00;101700.63;;;12.17;68.76
70009;BME280;59542;37.950;-122.338;2023-05-08T07:50:26;101693.97;;;12.12;69.31
70009;BME280;59542;37.950;-122.338;2023-05-08T07:52:52;101706.06;;;12.02;70.07
70009;BME280;59542;37.950;-122.338;2023-05-08T07:55:19;101697.41;;;12.00;70.37
70009;BME280;59542;37.950;-122.338;2023-05-08T07:57:46;101694.59;;;11.86;71.30
70009;BME280;59542;37.950;-122.338;2023-05-08T08:00:13;101692.16;;;11.92;71.04
70009;BME280;59542;37.950;-122.338;2023-05-08T08:02:41;101696.66;;;11.84;71.73
70009;BME280;59542;37.950;-122.338;2023-05-08T08:05:07;101690.25;;;11.85;71.16
70009;BME280;59542;37.950;-122.338;2023-05-08T08:07:34;101693.06;;;11.77;72.02
70009;BME280;59542;37.950;-122.338;2023-05-08T08:10:01;101689.47;;;11.70;72.13
70009;BME280;59542;37.950;-122.338;2023-05-08T08:12:29;101693.44;;;11.74;71.97
70009;BME280;59542;37.950;-122.338;2023-05-08T08:14:56;101697.91;;;11.67;72.14
70009;BME280;59542;37.950;-122.338;2023-05-08T08:17:23;101692.72;;;11.66;72.19
70009;BME280;59542;37.950;-122.338;2023-05-08T08:19:49;101680.56;;;11.84;71.43
70009;BME280;59542;37.950;-122.338;2023-05-08T08:22:15;101683.31;;;11.76;71.37
70009;BME280;59542;37.950;-122.338;2023-05-08T08:24:42;101680.97;;;11.88;71.00
70009;BME280;59542;37.950;-122.338;2023-05-08T08:27:08;101683.31;;;11.76;71.14
70009;BME280;59542;37.950;-122.338;2023-05-08T08:29:34;101686.00;;;11.76;71.17
70009;BME280;59542;37.950;-122.338;2023-05-08T08:32:01;101691.56;;;11.75;71.33
70009;BME280;59542;37.950;-122.338;2023-05-08T08:34:28;101681.41;;;11.70;71.98
70009;BME280;59542;37.950;-122.338;2023-05-08T08:36:54;101670.06;;;11.68;71.86
70009;BME280;59542;37.950;-122.338;2023-05-08T08:39:20;101673.25;;;11.78;71.65
70009;BME280;59542;37.950;-122.338;2023-05-08T08:41:47;101673.13;;;11.86;71.47
70009;BME280;59542;37.950;-122.338;2023-05-08T08:44:13;101675.19;;;11.84;71.02
70009;BME280;59542;37.950;-122.338;2023-05-08T08:46:46;101664.25;;;11.86;71.12
70009;BME280;59542;37.950;-122.338;2023-05-08T08:49:16;101670.66;;;11.85;71.40
70009;BME280;59542;37.950;-122.338;2023-05-08T08:51:50;101664.84;;;11.81;71.61
70009;BME280;59542;37.950;-122.338;2023-05-08T08:54:22;101660.88;;;11.77;72.28
70009;BME280;59542;37.950;-122.338;2023-05-08T08:56:49;101656.50;;;11.76;72.33
70009;BME280;59542;37.950;-122.338;2023-05-08T08:59:17;101663.72;;;11.76;72.29
70009;BME280;59542;37.950;-122.338;2023-05-08T09:01:48;101660.66;;;11.79;71.50
70009;BME280;59542;37.950;-122.338;2023-05-08T09:04:16;101653.19;;;11.74;72.01
70009;BME280;59542;37.950;-122.338;2023-05-08T09:06:42;101638.72;;;11.69;72.31
70009;BME280;59542;37.950;-122.338;2023-05-08T09:09:11;101641.66;;;11.74;72.98
70009;BME280;59542;37.950;-122.338;2023-05-08T09:11:39;101634.38;;;11.68;72.87
70009;BME280;59542;37.950;-122.338;2023-05-08T09:14:06;101627.41;;;11.73;73.78
70009;BME280;59542;37.950;-122.338;2023-05-08T09:16:33;101628.56;;;11.64;74.40
70009;BME280;59542;37.950;-122.338;2023-05-08T09:19:00;101624.44;;;11.61;74.34
70009;BME280;59542;37.950;-122.338;2023-05-08T09:21:27;101624.81;;;11.58;74.55
70009;BME280;59542;37.950;-122.338;2023-05-08T09:24:01;101632.13;;;11.71;73.75
70009;BME280;59542;37.950;-122.338;2023-05-08T09:26:39;101625.47;;;11.60;73.92
70009;BME280;59542;37.950;-122.338;2023-05-08T09:29:10;101627.41;;;11.73;72.14
70009;BME280;59542;37.950;-122.338;2023-05-08T09:31:39;101621.34;;;11.64;73.96
70009;BME280;59542;37.950;-122.338;2023-05-08T09:34:10;101615.16;;;11.64;74.55
70009;BME280;59542;37.950;-122.338;2023-05-08T09:36:37;101616.38;;;11.61;75.25
70009;BME280;59542;37.950;-122.338;2023-05-08T09:39:09;101616.81;;;11.65;75.12
70009;BME280;59542;37.950;-122.338;2023-05-08T09:41:37;101612.41;;;11.79;74.08
70009;BME280;59542;37.950;-122.338;2023-05-08T09:44:05;101619.13;;;11.68;75.52
70009;BME280;59542;37.950;-122.338;2023-05-08T09:46:32;101610.53;;;11.51;76.48
70009;BME280;59542;37.950;-122.338;2023-05-08T09:49:01;101611.91;;;11.69;75.08
70009;BME280;59542;37.950;-122.338;2023-05-08T09:51:29;101614.13;;;11.65;75.85
70009;BME280;59542;37.950;-122.338;2023-05-08T09:53:57;101624.06;;;11.71;75.40
70009;BME280;59542;37.950;-122.338;2023-05-08T09:59:00;101618.22;;;11.82;74.11
70009;BME280;59542;37.950;-122.338;2023-05-08T10:01:32;101609.19;;;11.90;73.89
70009;BME280;59542;37.950;-122.338;2023-05-08T10:03:59;101611.34;;;11.80;74.43
70009;BME280;59542;37.950;-122.338;2023-05-08T10:06:26;101615.84;;;11.94;73.87
70009;BME280;59542;37.950;-122.338;2023-05-08T10:09:09;101612.31;;;11.94;73.50
70009;BME280;59542;37.950;-122.338;2023-05-08T10:11:38;101615.38;;;11.91;74.53
70009;BME280;59542;37.950;-122.338;2023-05-08T10:14:04;101613.38;;;11.99;74.08
70009;BME280;59542;37.950;-122.338;2023-05-08T10:16:38;101619.38;;;12.01;73.11
70009;BME280;59542;37.950;-122.338;2023-05-08T10:19:08;101616.13;;;12.06;72.88
70009;BME280;59542;37.950;-122.338;2023-05-08T10:21:37;101611.38;;;12.08;73.09
70009;BME280;59542;37.950;-122.338;2023-05-08T10:24:20;101615.09;;;12.07;73.45
70009;BME280;59542;37.950;-122.338;2023-05-08T10:26:58;101613.50;;;12.19;72.71
70009;BME280;59542;37.950;-122.338;2023-05-08T10:29:32;101620.97;;;12.24;73.21
70009;BME280;59542;37.950;-122.338;2023-05-08T10:32:09;101611.41;;;12.14;73.72
70009;BME280;59542;37.950;-122.338;2023-05-08T10:34:39;101612.19;;;12.08;74.33
70009;BME280;59542;37.950;-122.338;2023-05-08T10:37:08;101602.38;;;12.22;73.77
70009;BME280;59542;37.950;-122.338;2023-05-08T10:39:36;101608.72;;;12.14;73.72
70009;BME280;59542;37.950;-122.338;2023-05-08T10:42:03;101606.31;;;12.26;73.18
70009;BME280;59542;37.950;-122.338;2023-05-08T10:44:30;101614.34;;;12.20;73.29
70009;BME280;59542;37.950;-122.338;2023-05-08T10:47:00;101612.84;;;12.10;73.73
70009;BME280;59542;37.950;-122.338;2023-05-08T10:52:26;101615.91;;;12.07;74.06
70009;BME280;59542;37.950;-122.338;2023-05-08T10:57:26;101605.56;;;12.04;74.04
70009;BME280;59542;37.950;-122.338;2023-05-08T10:59:53;101606.03;;;12.14;73.62
70009;BME280;59542;37.950;-122.338;2023-05-08T11:02:29;101606.25;;;12.13;73.87
70009;BME280;59542;37.950;-122.338;2023-05-08T11:05:18;101615.34;;;12.12;73.73
70009;BME280;59542;37.950;-122.338;2023-05-08T11:08:13;101618.84;;;12.12;73.60
70009;BME280;59542;37.950;-122.338;2023-05-08T11:10:40;101614.50;;;12.11;73.60
70009;BME280;59542;37.950;-122.338;2023-05-08T11:13:07;101606.06;;;12.21;72.97
70009;BME280;59542;37.950;-122.338;2023-05-08T11:15:35;101608.66;;;12.01;73.40
70009;BME280;59542;37.950;-122.338;2023-05-08T11:18:08;101597.97;;;12.08;73.01
70009;BME280;59542;37.950;-122.338;2023-05-08T11:21:00;101599.38;;;12.04;72.98
70009;BME280;59542;37.950;-122.338;2023-05-08T11:23:33;101592.53;;;11.95;72.56
70009;BME280;59542;37.950;-122.338;2023-05-08T11:26:01;101594.44;;;12.07;72.05
70009;BME280;59542;37.950;-122.338;2023-05-08T11:28:55;101590.13;;;12.06;71.53
70009;BME280;59542;37.950;-122.338;2023-05-08T11:31:22;101589.34;;;12.19;70.63
70009;BME280;59542;37.950;-122.338;2023-05-08T11:33:49;101582.28;;;12.05;70.23
70009;BME280;59542;37.950;-122.338;2023-05-08T11:36:17;101589.75;;;12.16;69.59
70009;BME280;59542;37.950;-122.338;2023-05-08T11:39:09;101590.31;;;12.05;70.55
70009;BME280;59542;37.950;-122.338;2023-05-08T11:41:40;101594.66;;;12.06;70.03
70009;BME280;59542;37.950;-122.338;2023-05-08T11:44:17;101595.91;;;12.10;70.33
70009;BME280;59542;37.950;-122.338;2023-05-08T11:46:53;101598.19;;;12.13;70.14
70009;BME280;59542;37.950;-122.338;2023-05-08T11:49:25;101597.81;;;12.16;69.97
70009;BME280;59542;37.950;-122.338;2023-05-08T11:51:53;101592.00;;;12.12;69.95
70009;BME280;59542;37.950;-122.338;2023-05-08T11:54:21;101595.47;;;11.78;71.53
70009;BME280;59542;37.950;-122.338;2023-05-08T11:56:48;101593.84;;;12.05;70.85
70009;BME280;59542;37.950;-122.338;2023-05-08T11:59:15;101592.44;;;12.16;70.08
70009;BME280;59542;37.950;-122.338;2023-05-08T12:01:42;101585.81;;;12.12;70.68
70009;BME280;59542;37.950;-122.338;2023-05-08T12:04:10;101580.22;;;12.07;71.06
70009;BME280;59542;37.950;-122.338;2023-05-08T12:06:41;101579.72;;;11.97;71.25
70009;BME280;59542;37.950;-122.338;2023-05-08T12:09:12;101582.47;;;12.10;70.59
70009;BME280;59542;37.950;-122.338;2023-05-08T12:11:39;101571.44;;;11.92;71.18
70009;BME280;59542;37.950;-122.338;2023-05-08T12:14:09;101574.38;;;11.97;71.63
70009;BME280;59542;37.950;-122.338;2023-05-08T12:16:36;101569.53;;;11.85;71.46
70009;BME280;59542;37.950;-122.338;2023-05-08T12:19:09;101561.13;;;11.88;71.76
70009;BME280;59542;37.950;-122.338;2023-05-08T12:21:36;101560.97;;;11.75;72.32
70009;BME280;59542;37.950;-122.338;2023-05-08T12:24:06;101553.94;;;11.96;71.86
70009;BME280;59542;37.950;-122.338;2023-05-08T12:26:38;101551.88;;;11.98;71.90
70009;BME280;59542;37.950;-122.338;2023-05-08T12:29:05;101547.97;;;12.00;71.93
70009;BME280;59542;37.950;-122.338;2023-05-08T12:31:35;101547.81;;;11.80;72.02
70009;BME280;59542;37.950;-122.338;2023-05-08T12:34:03;101547.78;;;12.02;71.25
70009;BME280;59542;37.950;-122.338;2023-05-08T12:36:34;101552.69;;;11.98;72.13
70009;BME280;59542;37.950;-122.338;2023-05-08T12:39:14;101555.41;;;11.77;72.66
70009;BME280;59542;37.950;-122.338;2023-05-08T12:41:45;101561.97;;;11.96;72.64
70009;BME280;59542;37.950;-122.338;2023-05-08T12:44:24;101563.91;;;12.08;72.68
70009;BME280;59542;37.950;-122.338;2023-05-08T12:46:52;101561.81;;;12.04;72.45
70009;BME280;59542;37.950;-122.338;2023-05-08T12:49:26;101560.31;;;11.95;73.13
70009;BME280;59542;37.950;-122.338;2023-05-08T12:52:06;101565.38;;;12.11;73.11
70009;BME280;59542;37.950;-122.338;2023-05-08T12:54:40;101565.38;;;12.11;73.02
70009;BME280;59542;37.950;-122.338;2023-05-08T12:57:18;101571.19;;;12.21;73.07
70009;BME280;59542;37.950;-122.338;2023-05-08T12:59:46;101571.63;;;12.25;72.18
70009;BME280;59542;37.950;-122.338;2023-05-08T13:02:20;101571.84;;;12.23;71.95